sensor_id;sensor_type;location;lat;lon;timestamp;temperature;humidity
21115;DHT22;10715;48.546;9.896;2023-05-07T00:00:08;10.90;99.90
21115;DHT22;10715;48.546;9.896;2023-05-07T00:02:35;10.90;99.90
21115;DHT22;10715;48.546;9.896;2023-05-07T00:05:01;10.90;99.90
21115;DHT22;10715;48.546;9.896;2023-05-07T00:07:27;10.80;99.90
21115;DHT22;10715;48.546;9.896;2023-05-07T00:09:53;10.80;99.90
21115;DHT22;10715;48.546;9.896;2023-05-07T00:12:19;10.80;99.90
21115;DHT22;10715;48.546;9.896;2023-05-07T00:14:45;10.70;99.90
21115;DHT22;10715;48.546;9.896;2023-05-07T00:17:10;10.70;99.90
21115;DHT22;10715;48.546;9.896;2023-05-07T00:19:36;10.70;99.90
21115;DHT22;10715;48.546;9.896;2023-05-07T00:22:02;10.70;99.90
21115;DHT22;10715;48.546;9.896;2023-05-07T00:24:28;10.60;99.90
21115;DHT22;10715;48.546;9.896;2023-05-07T00:26:53;10.60;99.90
21115;DHT22;10715;48.546;9.896;2023-05-07T00:29:19;10.60;99.90
21115;DHT22;10715;48.546;9.896;2023-05-07T00:31:45;10.60;99.90
21115;DHT22;10715;48.546;9.896;2023-05-07T00:34:11;10.50;99.90
21115;DHT22;10715;48.546;9.896;2023-05-07T00:36:36;10.50;99.90
21115;DHT22;10715;48.546;9.896;2023-05-07T00:39:02;10.40;99.90
21115;DHT22;10715;48.546;9.896;2023-05-07T00:41:29;10.40;99.90
21115;DHT22;10715;48.546;9.896;2023-05-07T00:43:56;10.40;99.90
21115;DHT22;10715;48.546;9.896;2023-05-07T00:46:22;10.30;99.90
21115;DHT22;10715;48.546;9.896;2023-05-07T00:48:50;10.30;99.90
21115;DHT22;10715;48.546;9.896;2023-05-07T00:51:17;10.30;99.90
21115;DHT22;10715;48.546;9.896;2023-05-07T00:53:43;10.20;99.90
21115;DHT22;10715;48.546;9.896;2023-05-07T00:56:10;10.20;99.90
21115;DHT22;10715;48.546;9.896;2023-05-07T00:58:36;10.20;99.90
21115;DHT22;10715;48.546;9.896;2023-05-07T01:01:02;10.10;99.90
21115;DHT22;10715;48.546;9.896;2023-05-07T01:03:28;10.10;99.90
21115;DHT22;10715;48.546;9.896;2023-05-07T01:05:55;10.10;99.90
21115;DHT22;10715;48.546;9.896;2023-05-07T01:08:22;10.10;99.90
21115;DHT22;10715;48.546;9.896;2023-05-07T01:10:51;10.10;99.90
21115;DHT22;10715;48.546;9.896;2023-05-07T01:13:17;10.00;99.90
21115;DHT22;10715;48.546;9.896;2023-05-07T01:15:43;10.00;99.90
21115;DHT22;10715;48.546;9.896;2023-05-07T01:18:09;10.00;99.90
21115;DHT22;10715;48.546;9.896;2023-05-07T01:20:35;9.90;99.90
21115;DHT22;10715;48.546;9.896;2023-05-07T01:23:01;9.90;99.90
21115;DHT22;10715;48.546;9.896;2023-05-07T01:25:28;9.90;99.90
21115;DHT22;10715;48.546;9.896;2023-05-07T01:27:54;9.90;99.90
21115;DHT22;10715;48.546;9.896;2023-05-07T01:30:21;9.90;99.90
21115;DHT22;10715;48.546;9.896;2023-05-07T01:32:53;9.80;99.90
21115;DHT22;10715;48.546;9.896;2023-05-07T01:35:25;9.80;99.90
21115;DHT22;10715;48.546;9.896;2023-05-07T01:37:53;9.80;99.90
21115;DHT22;10715;48.546;9.896;2023-05-07T01:40:19;9.80;99.90
21115;DHT22;10715;48.546;9.896;2023-05-07T01:42:45;9.80;99.90
21115;DHT22;10715;48.546;9.896;2023-05-07T01:45:11;9.80;99.90
21115;DHT22;10715;48.546;9.896;2023-05-07T01:47:37;9.70;99.90
21115;DHT22;10715;48.546;9.896;2023-05-07T01:50:06;9.70;99.90
21115;DHT22;10715;48.546;9.896;2023-05-07T01:52:34;9.70;99.90
21115;DHT22;10715;48.546;9.896;2023-05-07T01:54:59;9.60;99.90
21115;DHT22;10715;48.546;9.896;2023-05-07T01:57:25;9.60;99.90
21115;DHT22;10715;48.546;9.896;2023-05-07T01:59:51;9.50;99.90
21115;DHT22;10715;48.546;9.896;2023-05-07T02:02:16;9.50;99.90
21115;DHT22;10715;48.546;9.896;2023-05-07T02:04:42;9.50;99.90
21115;DHT22;10715;48.546;9.896;2023-05-07T02:07:08;9.50;99.90
21115;DHT22;10715;48.546;9.896;2023-05-07T02:09:33;9.40;99.90
21115;DHT22;10715;48.546;9.896;2023-05-07T02:11:59;9.40;99.90
21115;DHT22;10715;48.546;9.896;2023-05-07T02:14:25;9.40;99.90
21115;DHT22;10715;48.546;9.896;2023-05-07T02:16:51;9.30;99.90
21115;DHT22;10715;48.546;9.896;2023-05-07T02:19:17;9.30;99.90
21115;DHT22;10715;48.546;9.896;2023-05-07T02:21:43;9.30;99.90
21115;DHT22;10715;48.546;9.896;2023-05-07T02:24:09;9.30;99.90
21115;DHT22;10715;48.546;9.896;2023-05-07T02:26:34;9.30;99.90
21115;DHT22;10715;48.546;9.896;2023-05-07T02:29:00;9.30;99.90
21115;DHT22;10715;48.546;9.896;2023-05-07T02:31:26;9.20;99.90
21115;DHT22;10715;48.546;9.896;2023-05-07T02:33:52;9.20;99.90
21115;DHT22;10715;48.546;9.896;2023-05-07T02:36:17;9.20;99.90
21115;DHT22;10715;48.546;9.896;2023-05-07T02:38:43;9.20;99.90
21115;DHT22;10715;48.546;9.896;2023-05-07T02:41:09;9.20;99.90
21115;DHT22;10715;48.546;9.896;2023-05-07T02:43:34;9.20;99.90
21115;DHT22;10715;48.546;9.896;2023-05-07T02:46:05;9.10;99.90
21115;DHT22;10715;48.546;9.896;2023-05-07T02:48:31;9.10;99.90
21115;DHT22;10715;48.546;9.896;2023-05-07T02:50:57;9.10;99.90
21115;DHT22;10715;48.546;9.896;2023-05-07T02:53:24;9.10;99.90
21115;DHT22;10715;48.546;9.896;2023-05-07T02:55:52;9.00;99.90
21115;DHT22;10715;48.546;9.896;2023-05-07T02:58:18;9.00;99.90
21115;DHT22;10715;48.546;9.896;2023-05-07T03:00:44;9.00;99.90
21115;DHT22;10715;48.546;9.896;2023-05-07T03:03:10;9.00;99.90
21115;DHT22;10715;48.546;9.896;2023-05-07T03:05:36;9.00;99.90
21115;DHT22;10715;48.546;9.896;2023-05-07T03:08:02;9.00;99.90
21115;DHT22;10715;48.546;9.896;2023-05-07T03:10:29;8.90;99.90
21115;DHT22;10715;48.546;9.896;2023-05-07T03:12:55;8.90;99.90
21115;DHT22;10715;48.546;9.896;2023-05-07T03:15:21;8.90;99.90
21115;DHT22;10715;48.546;9.896;2023-05-07T03:17:50;8.90;99.90
21115;DHT22;10715;48.546;9.896;2023-05-07T03:20:16;8.90;99.90
21115;DHT22;10715;48.546;9.896;2023-05-07T03:22:41;8.90;99.90
21115;DHT22;10715;48.546;9.896;2023-05-07T03:25:08;8.80;99.90
21115;DHT22;10715;48.546;9.896;2023-05-07T03:27:34;8.80;99.90
21115;DHT22;10715;48.546;9.896;2023-05-07T03:30:00;8.80;99.90
21115;DHT22;10715;48.546;9.896;2023-05-07T03:32:25;8.80;99.90
21115;DHT22;10715;48.546;9.896;2023-05-07T03:34:51;8.80;99.90
21115;DHT22;10715;48.546;9.896;2023-05-07T03:37:17;8.70;99.90
21115;DHT22;10715;48.546;9.896;2023-05-07T03:39:43;8.70;99.90
21115;DHT22;10715;48.546;9.896;2023-05-07T03:42:09;8.70;99.90
21115;DHT22;10715;48.546;9.896;2023-05-07T03:44:34;8.70;99.90
21115;DHT22;10715;48.546;9.896;2023-05-07T03:47:02;8.70;99.90
21115;DHT22;10715;48.546;9.896;2023-05-07T03:49:27;8.70;99.90
21115;DHT22;10715;48.546;9.896;2023-05-07T03:51:53;8.70;99.90
21115;DHT22;10715;48.546;9.896;2023-05-07T03:54:19;8.70;99.90
21115;DHT22;10715;48.546;9.896;2023-05-07T03:56:45;8.60;99.90
21115;DHT22;10715;48.546;9.896;2023-05-07T03:59:11;8.60;99.90
21115;DHT22;10715;48.546;9.896;2023-05-07T04:01:37;8.70;99.90
21115;DHT22;10715;48.546;9.896;2023-05-07T04:04:02;8.60;99.90
21115;DHT22;10715;48.546;9.896;2023-05-07T04:06:30;8.60;99.90
21115;DHT22;10715;48.546;9.896;2023-05-07T04:08:55;8.60;99.90
21115;DHT22;10715;48.546;9.896;2023-05-07T04:11:22;8.60;99.90
21115;DHT22;10715;48.546;9.896;2023-05-07T04:13:47;8.60;99.90
21115;DHT22;10715;48.546;9.896;2023-05-07T04:18:41;8.40;99.90
21115;DHT22;10715;48.546;9.896;2023-05-07T04:21:17;8.50;99.90
21115;DHT22;10715;48.546;9.896;2023-05-07T04:23:43;8.50;99.90
21115;DHT22;10715;48.546;9.896;2023-05-07T04:26:09;8.50;99.90
21115;DHT22;10715;48.546;9.896;2023-05-07T04:28:36;8.50;99.90
21115;DHT22;10715;48.546;9.896;2023-05-07T04:31:01;8.50;99.90
21115;DHT22;10715;48.546;9.896;2023-05-07T04:33:27;8.50;99.90
21115;DHT22;10715;48.546;9.896;2023-05-07T04:35:53;8.50;99.90
21115;DHT22;10715;48.546;9.896;2023-05-07T04:38:19;8.50;99.90
21115;DHT22;10715;48.546;9.896;2023-05-07T04:40:44;8.50;99.90
21115;DHT22;10715;48.546;9.896;2023-05-07T04:43:10;8.50;99.90
21115;DHT22;10715;48.546;9.896;2023-05-07T04:45:36;8.50;99.90
21115;DHT22;10715;48.546;9.896;2023-05-07T04:48:02;8.50;99.90
21115;DHT22;10715;48.546;9.896;2023-05-07T04:50:28;8.50;99.90
21115;DHT22;10715;48.546;9.896;2023-05-07T04:52:54;8.50;99.90
21115;DHT22;10715;48.546;9.896;2023-05-07T04:55:20;8.50;99.90
21115;DHT22;10715;48.546;9.896;2023-05-07T04:57:45;8.50;99.90
21115;DHT22;10715;48.546;9.896;2023-05-07T05:00:11;8.50;99.90
21115;DHT22;10715;48.546;9.896;2023-05-07T05:02:40;8.50;99.90
21115;DHT22;10715;48.546;9.896;2023-05-07T05:05:06;8.60;99.90
21115;DHT22;10715;48.546;9.896;2023-05-07T05:07:32;8.60;99.90
21115;DHT22;10715;48.546;9.896;2023-05-07T05:09:58;8.60;99.90
21115;DHT22;10715;48.546;9.896;2023-05-07T05:12:24;8.60;99.90
21115;DHT22;10715;48.546;9.896;2023-05-07T05:14:50;8.60;99.90
21115;DHT22;10715;48.546;9.896;2023-05-07T05:17:16;8.70;99.90
21115;DHT22;10715;48.546;9.896;2023-05-07T05:19:41;8.70;99.90
21115;DHT22;10715;48.546;9.896;2023-05-07T05:22:07;8.80;99.90
21115;DHT22;10715;48.546;9.896;2023-05-07T05:24:33;8.80;99.90
21115;DHT22;10715;48.546;9.896;2023-05-07T05:26:58;8.90;99.90
21115;DHT22;10715;48.546;9.896;2023-05-07T05:29:26;8.90;99.90
21115;DHT22;10715;48.546;9.896;2023-05-07T05:31:52;9.00;99.90
21115;DHT22;10715;48.546;9.896;2023-05-07T05:34:18;9.10;99.90
21115;DHT22;10715;48.546;9.896;2023-05-07T05:36:45;9.20;99.90
21115;DHT22;10715;48.546;9.896;2023-05-07T05:39:11;9.50;99.90
21115;DHT22;10715;48.546;9.896;2023-05-07T05:41:37;9.70;99.90
21115;DHT22;10715;48.546;9.896;2023-05-07T05:44:02;9.80;99.90
21115;DHT22;10715;48.546;9.896;2023-05-07T05:46:28;9.90;99.90
21115;DHT22;10715;48.546;9.896;2023-05-07T05:48:54;10.20;99.90
21115;DHT22;10715;48.546;9.896;2023-05-07T05:51:21;10.50;99.90
21115;DHT22;10715;48.546;9.896;2023-05-07T05:53:47;10.70;99.90
21115;DHT22;10715;48.546;9.896;2023-05-07T05:56:12;10.80;99.90
21115;DHT22;10715;48.546;9.896;2023-05-07T05:58:38;11.10;99.90
21115;DHT22;10715;48.546;9.896;2023-05-07T06:01:04;11.30;99.90
21115;DHT22;10715;48.546;9.896;2023-05-07T06:03:30;11.60;99.90
21115;DHT22;10715;48.546;9.896;2023-05-07T06:05:57;11.70;99.90
21115;DHT22;10715;48.546;9.896;2023-05-07T06:08:23;12.00;99.90
21115;DHT22;10715;48.546;9.896;2023-05-07T06:10:49;12.30;99.90
21115;DHT22;10715;48.546;9.896;2023-05-07T06:13:15;12.70;99.90
21115;DHT22;10715;48.546;9.896;2023-05-07T06:15:40;13.00;99.90
21115;DHT22;10715;48.546;9.896;2023-05-07T06:18:06;13.10;99.90
21115;DHT22;10715;48.546;9.896;2023-05-07T06:20:32;13.10;99.90
21115;DHT22;10715;48.546;9.896;2023-05-07T06:22:58;13.20;99.90
21115;DHT22;10715;48.546;9.896;2023-05-07T06:25:23;13.30;99.90
21115;DHT22;10715;48.546;9.896;2023-05-07T06:27:49;13.40;99.90
21115;DHT22;10715;48.546;9.896;2023-05-07T06:30:15;13.60;99.90
21115;DHT22;10715;48.546;9.896;2023-05-07T06:32:41;13.80;99.90
21115;DHT22;10715;48.546;9.896;2023-05-07T06:35:07;14.00;99.90
21115;DHT22;10715;48.546;9.896;2023-05-07T06:37:33;14.10;99.90
21115;DHT22;10715;48.546;9.896;2023-05-07T06:39:58;14.10;99.90
21115;DHT22;10715;48.546;9.896;2023-05-07T06:42:24;14.20;99.90
21115;DHT22;10715;48.546;9.896;2023-05-07T06:44:50;14.10;99.90
21115;DHT22;10715;48.546;9.896;2023-05-07T06:47:15;14.10;99.90
21115;DHT22;10715;48.546;9.896;2023-05-07T06:49:41;14.10;99.90
21115;DHT22;10715;48.546;9.896;2023-05-07T06:52:07;14.10;99.90
21115;DHT22;10715;48.546;9.896;2023-05-07T06:54:33;14.10;99.90
21115;DHT22;10715;48.546;9.896;2023-05-07T06:56:59;14.20;99.90
21115;DHT22;10715;48.546;9.896;2023-05-07T06:59:24;14.20;99.90
21115;DHT22;10715;48.546;9.896;2023-05-07T07:01:50;14.20;99.90
21115;DHT22;10715;48.546;9.896;2023-05-07T07:04:16;14.30;99.90
21115;DHT22;10715;48.546;9.896;2023-05-07T07:06:41;14.30;99.90
21115;DHT22;10715;48.546;9.896;2023-05-07T07:09:07;14.40;99.90
21115;DHT22;10715;48.546;9.896;2023-05-07T07:11:33;14.40;99.90
21115;DHT22;10715;48.546;9.896;2023-05-07T07:13:59;14.40;99.90
21115;DHT22;10715;48.546;9.896;2023-05-07T07:16:24;14.40;99.90
21115;DHT22;10715;48.546;9.896;2023-05-07T07:18:51;14.40;99.90
21115;DHT22;10715;48.546;9.896;2023-05-07T07:21:16;14.50;99.90
21115;DHT22;10715;48.546;9.896;2023-05-07T07:23:42;14.60;99.90
21115;DHT22;10715;48.546;9.896;2023-05-07T07:26:08;14.70;99.90
21115;DHT22;10715;48.546;9.896;2023-05-07T07:28:33;14.70;99.90
21115;DHT22;10715;48.546;9.896;2023-05-07T07:30:59;14.80;99.90
21115;DHT22;10715;48.546;9.896;2023-05-07T07:33:25;15.00;99.90
21115;DHT22;10715;48.546;9.896;2023-05-07T07:35:51;15.20;99.90
21115;DHT22;10715;48.546;9.896;2023-05-07T07:38:16;15.40;99.90
21115;DHT22;10715;48.546;9.896;2023-05-07T07:40:42;15.60;99.90
21115;DHT22;10715;48.546;9.896;2023-05-07T07:43:09;15.80;99.90
21115;DHT22;10715;48.546;9.896;2023-05-07T07:45:35;16.00;99.90
21115;DHT22;10715;48.546;9.896;2023-05-07T07:48:00;16.20;99.90
21115;DHT22;10715;48.546;9.896;2023-05-07T07:50:26;16.30;99.90
21115;DHT22;10715;48.546;9.896;2023-05-07T07:52:52;16.40;99.90
21115;DHT22;10715;48.546;9.896;2023-05-07T07:55:20;16.60;99.90
21115;DHT22;10715;48.546;9.896;2023-05-07T07:57:48;16.70;99.90
21115;DHT22;10715;48.546;9.896;2023-05-07T08:00:15;16.70;99.90
21115;DHT22;10715;48.546;9.896;2023-05-07T08:02:41;16.80;99.90
21115;DHT22;10715;48.546;9.896;2023-05-07T08:05:07;17.00;99.90
21115;DHT22;10715;48.546;9.896;2023-05-07T08:07:32;17.10;99.90
21115;DHT22;10715;48.546;9.896;2023-05-07T08:09:58;17.30;99.90
21115;DHT22;10715;48.546;9.896;2023-05-07T08:12:24;17.40;99.90
21115;DHT22;10715;48.546;9.896;2023-05-07T08:14:50;17.50;99.90
21115;DHT22;10715;48.546;9.896;2023-05-07T08:17:16;17.60;99.90
21115;DHT22;10715;48.546;9.896;2023-05-07T08:19:42;17.70;99.90
21115;DHT22;10715;48.546;9.896;2023-05-07T08:22:09;17.80;99.90
21115;DHT22;10715;48.546;9.896;2023-05-07T08:24:36;18.00;99.90
21115;DHT22;10715;48.546;9.896;2023-05-07T08:27:01;18.20;99.90
21115;DHT22;10715;48.546;9.896;2023-05-07T08:29:27;18.30;99.90
21115;DHT22;10715;48.546;9.896;2023-05-07T08:31:53;18.50;99.90
21115;DHT22;10715;48.546;9.896;2023-05-07T08:34:19;18.60;99.90
21115;DHT22;10715;48.546;9.896;2023-05-07T08:36:45;18.70;99.90
21115;DHT22;10715;48.546;9.896;2023-05-07T08:39:14;18.70;99.90
21115;DHT22;10715;48.546;9.896;2023-05-07T08:41:40;18.70;99.90
21115;DHT22;10715;48.546;9.896;2023-05-07T08:44:12;18.60;99.90
21115;DHT22;10715;48.546;9.896;2023-05-07T08:46:39;18.80;99.90
21115;DHT22;10715;48.546;9.896;2023-05-07T08:49:05;18.80;99.90
21115;DHT22;10715;48.546;9.896;2023-05-07T08:51:31;18.80;99.90
21115;DHT22;10715;48.546;9.896;2023-05-07T08:53:58;18.90;99.90
21115;DHT22;10715;48.546;9.896;2023-05-07T08:56:24;18.90;99.90
21115;DHT22;10715;48.546;9.896;2023-05-07T08:58:51;18.90;99.90
21115;DHT22;10715;48.546;9.896;2023-05-07T09:01:17;18.80;99.90
21115;DHT22;10715;48.546;9.896;2023-05-07T09:03:46;18.80;99.90
21115;DHT22;10715;48.546;9.896;2023-05-07T09:06:12;18.80;99.90
21115;DHT22;10715;48.546;9.896;2023-05-07T09:08:38;18.70;99.90
21115;DHT22;10715;48.546;9.896;2023-05-07T09:11:04;18.60;99.90
21115;DHT22;10715;48.546;9.896;2023-05-07T09:13:29;18.60;99.90
21115;DHT22;10715;48.546;9.896;2023-05-07T09:15:56;18.50;99.90
21115;DHT22;10715;48.546;9.896;2023-05-07T09:18:24;18.40;99.90
21115;DHT22;10715;48.546;9.896;2023-05-07T09:20:50;18.40;99.90
21115;DHT22;10715;48.546;9.896;2023-05-07T09:23:16;18.30;99.90
21115;DHT22;10715;48.546;9.896;2023-05-07T09:25:42;18.30;99.90
21115;DHT22;10715;48.546;9.896;2023-05-07T09:28:08;18.30;99.90
21115;DHT22;10715;48.546;9.896;2023-05-07T09:30:35;18.30;99.90
21115;DHT22;10715;48.546;9.896;2023-05-07T09:33:03;18.30;99.90
21115;DHT22;10715;48.546;9.896;2023-05-07T09:35:30;18.40;99.90
21115;DHT22;10715;48.546;9.896;2023-05-07T09:37:57;18.40;99.90
21115;DHT22;10715;48.546;9.896;2023-05-07T09:40:28;18.50;99.90
21115;DHT22;10715;48.546;9.896;2023-05-07T09:42:55;18.50;99.90
21115;DHT22;10715;48.546;9.896;2023-05-07T09:45:27;18.50;99.90
21115;DHT22;10715;48.546;9.896;2023-05-07T09:47:55;18.60;99.90
21115;DHT22;10715;48.546;9.896;2023-05-07T09:50:41;18.70;99.90
21115;DHT22;10715;48.546;9.896;2023-05-07T09:53:11;18.80;99.90
21115;DHT22;10715;48.546;9.896;2023-05-07T09:55:38;19.00;99.90
21115;DHT22;10715;48.546;9.896;2023-05-07T09:58:04;19.10;99.90
21115;DHT22;10715;48.546;9.896;2023-05-07T10:00:32;19.20;99.90
21115;DHT22;10715;48.546;9.896;2023-05-07T10:02:58;19.30;99.90
21115;DHT22;10715;48.546;9.896;2023-05-07T10:05:25;19.40;99.90
21115;DHT22;10715;48.546;9.896;2023-05-07T10:07:53;19.50;99.90
21115;DHT22;10715;48.546;9.896;2023-05-07T10:10:19;19.50;99.90
21115;DHT22;10715;48.546;9.896;2023-05-07T10:12:46;19.50;99.90
21115;DHT22;10715;48.546;9.896;2023-05-07T10:15:13;19.50;99.90
21115;DHT22;10715;48.546;9.896;2023-05-07T10:17:40;19.40;99.90
21115;DHT22;10715;48.546;9.896;2023-05-07T10:20:07;19.40;99.90
21115;DHT22;10715;48.546;9.896;2023-05-07T10:22:42;19.50;99.90
21115;DHT22;10715;48.546;9.896;2023-05-07T10:25:18;19.60;99.90
21115;DHT22;10715;48.546;9.896;2023-05-07T10:27:47;19.70;99.90
21115;DHT22;10715;48.546;9.896;2023-05-07T10:33:24;20.00;99.90
21115;DHT22;10715;48.546;9.896;2023-05-07T10:35:57;20.10;99.90
21115;DHT22;10715;48.546;9.896;2023-05-07T10:38:24;20.20;99.90
21115;DHT22;10715;48.546;9.896;2023-05-07T10:40:51;20.30;99.90
21115;DHT22;10715;48.546;9.896;2023-05-07T10:43:17;20.40;99.90
21115;DHT22;10715;48.546;9.896;2023-05-07T10:45:42;20.30;99.90
21115;DHT22;10715;48.546;9.896;2023-05-07T10:48:15;20.30;99.90
21115;DHT22;10715;48.546;9.896;2023-05-07T10:50:43;20.40;99.90
21115;DHT22;10715;48.546;9.896;2023-05-07T10:58:38;20.60;99.90
21115;DHT22;10715;48.546;9.896;2023-05-07T11:01:04;20.60;99.90
21115;DHT22;10715;48.546;9.896;2023-05-07T11:03:32;20.60;99.90
21115;DHT22;10715;48.546;9.896;2023-05-07T11:06:15;20.50;99.90
21115;DHT22;10715;48.546;9.896;2023-05-07T11:08:57;20.50;99.90
21115;DHT22;10715;48.546;9.896;2023-05-07T11:11:49;20.50;99.90
21115;DHT22;10715;48.546;9.896;2023-05-07T11:17:06;20.50;99.90
21115;DHT22;10715;48.546;9.896;2023-05-07T11:19:53;20.50;99.90
21115;DHT22;10715;48.546;9.896;2023-05-07T11:25:01;20.60;99.90
21115;DHT22;10715;48.546;9.896;2023-05-07T11:27:27;20.60;99.90
21115;DHT22;10715;48.546;9.896;2023-05-07T11:29:53;20.60;99.90
21115;DHT22;10715;48.546;9.896;2023-05-07T11:32:30;20.60;99.90
21115;DHT22;10715;48.546;9.896;2023-05-07T11:34:57;20.60;99.90
21115;DHT22;10715;48.546;9.896;2023-05-07T11:37:24;20.60;99.90
21115;DHT22;10715;48.546;9.896;2023-05-07T11:39:50;20.60;99.90
21115;DHT22;10715;48.546;9.896;2023-05-07T11:42:34;20.60;99.90
21115;DHT22;10715;48.546;9.896;2023-05-07T11:45:01;20.60;99.90
21115;DHT22;10715;48.546;9.896;2023-05-07T11:47:30;20.60;99.90
21115;DHT22;10715;48.546;9.896;2023-05-07T11:50:06;20.60;99.90
21115;DHT22;10715;48.546;9.896;2023-05-07T11:52:33;20.60;99.90
21115;DHT22;10715;48.546;9.896;2023-05-07T11:55:00;20.60;99.90
21115;DHT22;10715;48.546;9.896;2023-05-07T11:57:27;20.50;99.90
21115;DHT22;10715;48.546;9.896;2023-05-07T12:02:20;20.50;99.90
21115;DHT22;10715;48.546;9.896;2023-05-07T12:04:46;20.50;99.90
21115;DHT22;10715;48.546;9.896;2023-05-07T12:07:13;20.40;99.90
21115;DHT22;10715;48.546;9.896;2023-05-07T12:09:40;20.40;99.90
21115;DHT22;10715;48.546;9.896;2023-05-07T12:12:06;20.40;99.90
21115;DHT22;10715;48.546;9.896;2023-05-07T12:14:32;20.40;99.90
21115;DHT22;10715;48.546;9.896;2023-05-07T12:17:00;20.40;99.90
21115;DHT22;10715;48.546;9.896;2023-05-07T12:19:29;20.40;99.90
21115;DHT22;10715;48.546;9.896;2023-05-07T12:21:56;20.40;99.90
21115;DHT22;10715;48.546;9.896;2023-05-07T12:24:22;20.40;99.90
21115;DHT22;10715;48.546;9.896;2023-05-07T12:26:50;20.30;99.90
21115;DHT22;10715;48.546;9.896;2023-05-07T12:29:16;20.40;99.90
21115;DHT22;10715;48.546;9.896;2023-05-07T12:31:43;20.30;99.90
21115;DHT22;10715;48.546;9.896;2023-05-07T12:34:13;20.30;99.90
21115;DHT22;10715;48.546;9.896;2023-05-07T12:36:40;20.30;99.90
21115;DHT22;10715;48.546;9.896;2023-05-07T12:39:07;20.30;99.90
21115;DHT22;10715;48.546;9.896;2023-05-07T12:41:57;20.40;99.90
21115;DHT22;10715;48.546;9.896;2023-05-07T12:44:32;20.40;99.90
21115;DHT22;10715;48.546;9.896;2023-05-07T12:47:01;20.40;99.90
21115;DHT22;10715;48.546;9.896;2023-05-07T12:49:27;20.40;99.90
21115;DHT22;10715;48.546;9.896;2023-05-07T12:51:54;20.40;99.90
21115;DHT22;10715;48.546;9.896;2023-05-07T12:54:35;20.40;99.90
21115;DHT22;10715;48.546;9.896;2023-05-07T12:57:07;20.50;99.90
21115;DHT22;10715;48.546;9.896;2023-05-07T12:59:42;20.50;99.90
21115;DHT22;10715;48.546;9.896;2023-05-07T13:02:08;20.50;99.90
21115;DHT22;10715;48.546;9.896;2023-05-07T13:04:34;20.50;99.90
21115;DHT22;10715;48.546;9.896;2023-05-07T13:07:01;20.50;99.90
21115;DHT22;10715;48.546;9.896;2023-05-07T13:09:28;20.50;99.90
21115;DHT22;10715;48.546;9.896;2023-05-07T13:11:58;20.50;99.90
21115;DHT22;10715;48.546;9.896;2023-05-07T13:14:28;20.40;99.90
21115;DHT22;10715;48.546;9.896;2023-05-07T13:16:54;20.40;99.90
21115;DHT22;10715;48.546;9.896;2023-05-07T13:19:20;20.40;99.90
21115;DHT22;10715;48.546;9.896;2023-05-07T13:21:46;20.40;99.90
21115;DHT22;10715;48.546;9.896;2023-05-07T13:24:12;20.30;99.90
21115;DHT22;10715;48.546;9.896;2023-05-07T13:26:38;20.30;99.90
21115;DHT22;10715;48.546;9.896;2023-05-07T13:29:03;20.30;99.90
21115;DHT22;10715;48.546;9.896;2023-05-07T13:31:29;20.30;99.90
21115;DHT22;10715;48.546;9.896;2023-05-07T13:33:55;20.20;99.90
21115;DHT22;10715;48.546;9.896;2023-05-07T13:36:21;20.20;99.90
21115;DHT22;10715;48.546;9.896;2023-05-07T13:38:47;20.10;99.90
21115;DHT22;10715;48.546;9.896;2023-05-07T13:41:13;20.10;99.90
21115;DHT22;10715;48.546;9.896;2023-05-07T13:43:41;20.10;99.90
21115;DHT22;10715;48.546;9.896;2023-05-07T13:46:09;20.00;99.90
21115;DHT22;10715;48.546;9.896;2023-05-07T13:48:36;20.00;99.90
21115;DHT22;10715;48.546;9.896;2023-05-07T13:51:01;20.00;99.90
21115;DHT22;10715;48.546;9.896;2023-05-07T13:53:27;19.90;99.90
21115;DHT22;10715;48.546;9.896;2023-05-07T13:55:53;19.90;99.90
21115;DHT22;10715;48.546;9.896;2023-05-07T13:58:19;19.90;99.90
21115;DHT22;10715;48.546;9.896;2023-05-07T14:00:45;19.90;99.90
21115;DHT22;10715;48.546;9.896;2023-05-07T14:03:11;19.80;99.90
21115;DHT22;10715;48.546;9.896;2023-05-07T14:05:36;19.80;99.90
21115;DHT22;10715;48.546;9.896;2023-05-07T14:08:02;19.80;99.90
21115;DHT22;10715;48.546;9.896;2023-05-07T14:10:31;19.70;99.90
21115;DHT22;10715;48.546;9.896;2023-05-07T14:12:57;19.70;99.90
21115;DHT22;10715;48.546;9.896;2023-05-07T14:15:22;19.60;99.90
21115;DHT22;10715;48.546;9.896;2023-05-07T14:17:48;19.50;99.90
21115;DHT22;10715;48.546;9.896;2023-05-07T14:20:14;19.40;99.90
21115;DHT22;10715;48.546;9.896;2023-05-07T14:22:40;19.30;99.90
21115;DHT22;10715;48.546;9.896;2023-05-07T14:25:06;19.30;99.90
21115;DHT22;10715;48.546;9.896;2023-05-07T14:27:32;19.20;99.90
21115;DHT22;10715;48.546;9.896;2023-05-07T14:29:57;19.20;99.90
21115;DHT22;10715;48.546;9.896;2023-05-07T14:32:23;19.10;99.90
21115;DHT22;10715;48.546;9.896;2023-05-07T14:34:50;19.10;99.90
21115;DHT22;10715;48.546;9.896;2023-05-07T14:37:16;19.00;99.90
21115;DHT22;10715;48.546;9.896;2023-05-07T14:39:41;19.00;99.90
21115;DHT22;10715;48.546;9.896;2023-05-07T14:42:07;18.90;99.90
21115;DHT22;10715;48.546;9.896;2023-05-07T14:44:38;18.90;99.90
21115;DHT22;10715;48.546;9.896;2023-05-07T14:47:07;18.80;99.90
21115;DHT22;10715;48.546;9.896;2023-05-07T14:49:33;18.80;99.90
21115;DHT22;10715;48.546;9.896;2023-05-07T14:51:59;18.80;99.90
21115;DHT22;10715;48.546;9.896;2023-05-07T14:54:27;18.80;99.90
21115;DHT22;10715;48.546;9.896;2023-05-07T14:56:53;18.70;99.90
21115;DHT22;10715;48.546;9.896;2023-05-07T14:59:19;18.60;99.90
21115;DHT22;10715;48.546;9.896;2023-05-07T15:01:49;18.60;99.90
21115;DHT22;10715;48.546;9.896;2023-05-07T15:04:15;18.50;99.90
21115;DHT22;10715;48.546;9.896;2023-05-07T15:06:44;18.50;99.90
21115;DHT22;10715;48.546;9.896;2023-05-07T15:09:10;18.40;99.90
21115;DHT22;10715;48.546;9.896;2023-05-07T15:11:36;18.40;99.90
21115;DHT22;10715;48.546;9.896;2023-05-07T15:14:01;18.40;99.90
21115;DHT22;10715;48.546;9.896;2023-05-07T15:16:27;18.40;99.90
21115;DHT22;10715;48.546;9.896;2023-05-07T15:18:53;18.30;99.90
21115;DHT22;10715;48.546;9.896;2023-05-07T15:21:18;18.30;99.90
21115;DHT22;10715;48.546;9.896;2023-05-07T15:23:45;18.20;99.90
21115;DHT22;10715;48.546;9.896;2023-05-07T15:26:12;18.20;99.90
21115;DHT22;10715;48.546;9.896;2023-05-07T15:28:37;18.10;99.90
21115;DHT22;10715;48.546;9.896;2023-05-07T15:31:04;18.10;99.90
21115;DHT22;10715;48.546;9.896;2023-05-07T15:33:32;18.00;99.90
21115;DHT22;10715;48.546;9.896;2023-05-07T15:35:58;17.90;99.90
21115;DHT22;10715;48.546;9.896;2023-05-07T15:38:28;17.80;99.90
21115;DHT22;10715;48.546;9.896;2023-05-07T15:40:54;17.80;99.90
21115;DHT22;10715;48.546;9.896;2023-05-07T15:43:20;17.70;99.90
21115;DHT22;10715;48.546;9.896;2023-05-07T15:45:46;17.60;99.90
21115;DHT22;10715;48.546;9.896;2023-05-07T15:48:11;17.60;99.90
21115;DHT22;10715;48.546;9.896;2023-05-07T15:50:37;17.50;99.90